This is the latest recevied weather packets stored in our database for station/object KK7ISX. If no packets are shown the sender has not sent any weather packets the latest 10 day(s).
| Time | Temp. | Humidity | Pressure | Rain* | Wind** | Luminosity | Snow |
|---|---|---|---|---|---|---|---|
| 1777987713 | 10° C | 73% | 1009.3 hPa | 0 mm | - | 37 W/m² | - |
| 1777987410 | 10° C | 73% | 1009.3 hPa | 0 mm | - | 30 W/m² | - |
| 1777987107 | 10° C | 72% | 1009 hPa | 0 mm | - | 25 W/m² | - |
| 1777986805 | 10° C | 71% | 1008.9 hPa | 0 mm | - | 22 W/m² | - |
| 1777986503 | 10° C | 71% | 1008.9 hPa | 0 mm | - | 20 W/m² | - |
| 1777984684 | 10.56° C | 70% | 1008.3 hPa | 0 mm | - | 5 W/m² | - |
| 1777984380 | 10.56° C | 70% | 1008.3 hPa | 0 mm | - | 3 W/m² | - |
| 1777984077 | 10.56° C | 69% | 1008 hPa | 0 mm | - | 2 W/m² | - |
| 1777983775 | 10.56° C | 69% | 1008.1 hPa | 0 mm | - | 1 W/m² | - |
| 1777983168 | 10.56° C | 68% | 1008 hPa | 0 mm | - | 0 W/m² | - |
| 1777982864 | 10.56° C | 68% | 1007.8 hPa | 0 mm | - | 0 W/m² | - |
| 1777982259 | 10.56° C | 67% | 1007.7 hPa | 0 mm | - | 0 W/m² | - |
| 1777981047 | 11.11° C | 66% | 1007.2 hPa | 0 mm | - | 0 W/m² | - |
| 1777980743 | 11.11° C | 66% | 1007.3 hPa | 0 mm | - | 0 W/m² | - |
| 1777980138 | 11.11° C | 65% | 1007.1 hPa | 0 mm | - | 0 W/m² | - |
| 1777979837 | 11.67° C | 65% | 1007.3 hPa | 0 mm | - | 0 W/m² | - |
| 1777976502 | 13.33° C | 59% | 1006.4 hPa | 0 mm | - | 0 W/m² | - |
| 1777976201 | 14.44° C | 55% | 1006.4 hPa | 0 mm | - | 0 W/m² | - |
| 1777975897 | 14.44° C | 53% | 1006 hPa | 0 mm | - | 0 W/m² | - |
| 1777975593 | 14.44° C | 54% | 1005.9 hPa | 0 mm | - | 0 W/m² | - |
| 1777975290 | 14.44° C | 54% | 1005.9 hPa | 0 mm | - | 0 W/m² | - |
| 1777974986 | 14.44° C | 53% | 1005.9 hPa | 0 mm | - | 0 W/m² | - |
| 1777974380 | 15° C | 52% | 1005.7 hPa | 0 mm | - | 0 W/m² | - |
| 1777973772 | 15° C | 53% | 1005.6 hPa | 0 mm | - | 0 W/m² | - |
| 1777973470 | 15° C | 51% | 1005.8 hPa | 0 mm | - | 0 W/m² | - |
* Rain latest hour (hover to see other rain measurements)
** Current wind speed in m/s (hover to see current wind gust speed)